createdAt,value
2018-12-16T00:02:16.249Z,1.80
2018-12-16T00:04:50.078Z,1.80
2018-12-16T00:07:20.449Z,1.80
2018-12-16T00:09:51.407Z,1.80
2018-12-16T00:12:22.469Z,1.80
2018-12-16T00:14:53.413Z,1.90
2018-12-16T00:17:24.382Z,1.90
2018-12-16T00:19:55.386Z,1.90
2018-12-16T00:22:29.867Z,1.90
2018-12-16T00:25:00.316Z,1.90
2018-12-16T00:27:31.215Z,1.90
2018-12-16T00:30:02.567Z,1.90
2018-12-16T00:32:33.499Z,2.00
2018-12-16T00:35:05.246Z,2.00
2018-12-16T00:37:36.589Z,2.00
2018-12-16T00:40:08.753Z,2.10
2018-12-16T00:42:39.767Z,2.00
2018-12-16T00:45:10.924Z,2.10
2018-12-16T00:47:41.864Z,2.10
2018-12-16T00:50:13.544Z,2.10
2018-12-16T00:52:44.569Z,2.10
2018-12-16T00:55:15.575Z,2.10
2018-12-16T00:57:46.625Z,2.10
2018-12-16T01:00:17.631Z,2.10
2018-12-16T01:02:48.558Z,2.10
2018-12-16T01:05:19.505Z,2.10
2018-12-16T01:07:50.602Z,2.10
2018-12-16T01:10:21.552Z,2.20
2018-12-16T01:12:52.578Z,2.20
2018-12-16T01:15:23.533Z,2.20
2018-12-16T01:17:54.659Z,2.20
2018-12-16T01:20:25.835Z,2.20
2018-12-16T01:22:56.831Z,2.20
2018-12-16T01:25:28.236Z,2.30
2018-12-16T01:27:59.151Z,2.30
2018-12-16T01:30:30.236Z,2.30
2018-12-16T01:33:01.346Z,2.30
2018-12-16T01:35:32.458Z,2.30
2018-12-16T01:38:03.405Z,2.30
2018-12-16T01:40:34.970Z,2.30
2018-12-16T01:43:06.101Z,2.40
2018-12-16T01:45:37.279Z,2.30
2018-12-16T01:48:08.289Z,2.30
2018-12-16T01:50:39.251Z,2.40
2018-12-16T01:53:10.170Z,2.30
2018-12-16T01:55:41.107Z,2.40
2018-12-16T01:58:12.052Z,2.40
2018-12-16T02:00:43.022Z,2.40
2018-12-16T02:03:14.073Z,2.40
2018-12-16T02:05:45.012Z,2.40
2018-12-16T02:08:15.998Z,2.40
2018-12-16T02:10:46.940Z,2.40
2018-12-16T02:13:18.123Z,2.50
2018-12-16T02:15:49.275Z,2.40
2018-12-16T02:18:20.209Z,2.40
2018-12-16T02:20:51.973Z,2.40
2018-12-16T02:23:23.152Z,2.40
2018-12-16T02:25:54.973Z,2.50
2018-12-16T02:28:26.169Z,2.50
2018-12-16T02:30:57.181Z,2.50
2018-12-16T02:33:28.138Z,2.50
2018-12-16T02:35:59.235Z,2.50
2018-12-16T02:38:30.198Z,2.50
2018-12-16T02:41:01.324Z,2.60
2018-12-16T02:43:32.401Z,2.60
2018-12-16T02:46:03.432Z,2.60
2018-12-16T02:48:34.423Z,2.60
2018-12-16T02:51:06.436Z,2.60
2018-12-16T02:53:40.926Z,2.60
2018-12-16T02:56:12.030Z,2.70
2018-12-16T02:58:43.183Z,2.70
2018-12-16T03:01:14.168Z,2.70
2018-12-16T03:03:45.086Z,2.70
2018-12-16T03:06:16.293Z,2.70
2018-12-16T03:08:47.262Z,2.70
2018-12-16T03:11:18.206Z,2.70
2018-12-16T03:13:49.181Z,2.60
2018-12-16T03:16:20.271Z,2.70
2018-12-16T03:18:51.274Z,2.60
2018-12-16T03:21:22.400Z,2.60
2018-12-16T03:23:53.341Z,2.60
2018-12-16T03:26:24.358Z,2.70
2018-12-16T03:28:55.428Z,2.70
2018-12-16T03:31:26.432Z,2.70
2018-12-16T03:33:57.629Z,2.60
2018-12-16T03:36:28.882Z,2.60
2018-12-16T03:39:00.026Z,2.60
2018-12-16T03:41:31.609Z,2.70
2018-12-16T03:44:03.393Z,2.70
2018-12-16T03:46:34.429Z,2.80
2018-12-16T03:49:05.648Z,2.80
2018-12-16T03:51:36.738Z,2.80
2018-12-16T03:54:08.605Z,2.80
2018-12-16T03:56:39.809Z,2.80
2018-12-16T03:59:17.966Z,2.90
2018-12-16T04:01:57.057Z,2.80
2018-12-16T04:04:28.334Z,2.80
2018-12-16T04:06:59.585Z,2.90
2018-12-16T04:09:30.509Z,2.90
2018-12-16T04:12:01.444Z,2.90
2018-12-16T04:14:32.481Z,3.00
2018-12-16T04:17:03.427Z,2.90
2018-12-16T04:19:34.514Z,2.90
2018-12-16T04:22:05.471Z,2.90
2018-12-16T04:24:36.447Z,2.90
2018-12-16T04:27:07.500Z,3.00
2018-12-16T04:29:38.419Z,3.00
2018-12-16T04:32:09.381Z,3.00
2018-12-16T04:34:40.300Z,3.00
2018-12-16T04:37:11.283Z,3.00
2018-12-16T04:39:42.204Z,3.10
2018-12-16T04:42:13.143Z,3.10
2018-12-16T04:44:44.090Z,3.10
2018-12-16T04:47:15.209Z,3.10
2018-12-16T04:49:46.440Z,3.10
2018-12-16T04:52:17.489Z,3.10
2018-12-16T04:54:48.398Z,3.20
2018-12-16T04:57:19.773Z,3.20
2018-12-16T04:59:50.716Z,3.20
2018-12-16T05:02:22.590Z,3.20
2018-12-16T05:04:53.585Z,3.20
2018-12-16T05:07:24.648Z,3.20
2018-12-16T05:10:04.524Z,3.20
2018-12-16T05:12:35.644Z,3.20
2018-12-16T05:15:06.696Z,3.20
2018-12-16T05:17:37.693Z,3.20
2018-12-16T05:20:09.132Z,3.20
2018-12-16T05:22:40.107Z,3.20
2018-12-16T05:25:11.177Z,3.20
2018-12-16T05:27:42.128Z,3.30
2018-12-16T05:30:13.332Z,3.30
2018-12-16T05:32:44.626Z,3.30
2018-12-16T05:35:15.606Z,3.40
2018-12-16T05:37:46.653Z,3.40
2018-12-16T05:40:17.600Z,3.40
2018-12-16T05:42:48.609Z,3.40
2018-12-16T05:45:19.744Z,3.40
2018-12-16T05:47:50.717Z,3.40
2018-12-16T05:50:22.602Z,3.40
2018-12-16T05:52:53.513Z,3.50
2018-12-16T05:55:25.252Z,3.50
2018-12-16T05:57:56.457Z,3.50
2018-12-16T06:00:27.412Z,3.50
2018-12-16T06:02:58.367Z,3.50
2018-12-16T06:05:29.485Z,3.60
2018-12-16T06:08:00.861Z,3.60
2018-12-16T06:10:31.981Z,3.60
2018-12-16T06:13:02.933Z,3.60
2018-12-16T06:15:33.880Z,3.50
2018-12-16T06:18:04.819Z,3.60
2018-12-16T06:20:35.721Z,3.50
2018-12-16T06:23:07.295Z,3.50
2018-12-16T06:25:38.865Z,3.50
2018-12-16T06:28:09.864Z,3.60
2018-12-16T06:30:42.323Z,3.60
2018-12-16T06:33:13.276Z,3.60
2018-12-16T06:35:44.328Z,3.70
2018-12-16T06:38:15.575Z,3.60
2018-12-16T06:40:46.552Z,3.60
2018-12-16T06:43:17.669Z,3.60
2018-12-16T06:45:48.834Z,3.50
2018-12-16T06:48:19.754Z,3.50
2018-12-16T06:50:50.819Z,3.40
2018-12-16T06:53:22.644Z,3.40
2018-12-16T06:55:53.749Z,3.40
2018-12-16T06:58:25.254Z,3.40
2018-12-16T07:00:56.493Z,3.30
2018-12-16T07:03:27.443Z,3.40
2018-12-16T07:05:58.544Z,3.30
2018-12-16T07:08:29.580Z,3.30
2018-12-16T07:11:00.647Z,3.40
2018-12-16T07:13:31.594Z,3.40
2018-12-16T07:16:02.541Z,3.40
2018-12-16T07:18:33.606Z,3.30
2018-12-16T07:21:04.559Z,3.40
2018-12-16T07:23:35.510Z,3.40
2018-12-16T07:26:06.550Z,3.40
2018-12-16T07:28:37.697Z,3.40
2018-12-16T07:31:08.666Z,3.40
2018-12-16T07:33:39.660Z,3.50
2018-12-16T07:36:10.581Z,3.40
2018-12-16T07:38:41.573Z,3.50
2018-12-16T07:41:12.502Z,3.50
2018-12-16T07:43:43.488Z,3.60
2018-12-16T07:46:14.451Z,3.60
2018-12-16T07:48:45.712Z,3.60
2018-12-16T07:51:17.005Z,3.80
2018-12-16T07:53:48.017Z,3.80
2018-12-16T07:56:18.958Z,3.80
2018-12-16T07:58:50.186Z,3.80
2018-12-16T08:01:21.382Z,3.90
2018-12-16T08:03:52.451Z,3.90
2018-12-16T08:06:23.420Z,3.90
2018-12-16T08:08:54.506Z,4.00
2018-12-16T08:11:25.632Z,4.00
2018-12-16T08:13:56.857Z,4.10
2018-12-16T08:16:27.937Z,4.10
2018-12-16T08:18:59.043Z,4.20
2018-12-16T08:21:30.023Z,4.20
2018-12-16T08:24:01.101Z,4.20
2018-12-16T08:26:32.097Z,4.20
2018-12-16T08:29:03.077Z,4.20
2018-12-16T08:31:33.981Z,4.30
2018-12-16T08:34:05.062Z,4.30
2018-12-16T08:36:36.024Z,4.30
2018-12-16T08:39:07.995Z,4.30
2018-12-16T08:41:39.080Z,4.30
2018-12-16T08:44:10.449Z,4.30
2018-12-16T08:46:41.459Z,4.30
2018-12-16T08:49:14.062Z,4.40
2018-12-16T08:51:45.626Z,4.30
2018-12-16T08:54:16.902Z,4.30
2018-12-16T08:56:48.169Z,4.40
2018-12-16T08:59:19.449Z,4.40
2018-12-16T09:01:50.412Z,4.40
2018-12-16T09:04:22.501Z,4.40
2018-12-16T09:06:53.805Z,4.40
2018-12-16T09:09:25.285Z,4.40
2018-12-16T09:11:56.315Z,4.40
2018-12-16T09:14:28.066Z,4.40
2018-12-16T09:17:00.010Z,4.40
2018-12-16T09:19:31.050Z,4.50
2018-12-16T09:22:02.212Z,4.50
2018-12-16T09:24:37.159Z,4.50
2018-12-16T09:27:06.238Z,4.60
2018-12-16T09:29:37.403Z,4.60
2018-12-16T09:32:08.392Z,4.70
2018-12-16T09:34:39.590Z,4.70
2018-12-16T09:37:10.541Z,4.80
2018-12-16T09:39:41.682Z,4.80
2018-12-16T09:42:12.774Z,4.80
2018-12-16T09:44:44.014Z,4.80
2018-12-16T09:47:15.019Z,4.90
2018-12-16T09:49:46.312Z,4.90
2018-12-16T09:52:17.218Z,4.90
2018-12-16T09:54:48.315Z,5.00
2018-12-16T09:57:19.338Z,4.90
2018-12-16T09:59:50.305Z,5.00
2018-12-16T10:02:21.494Z,5.00
2018-12-16T10:04:52.730Z,5.00
2018-12-16T10:07:23.685Z,5.10
2018-12-16T10:09:55.535Z,5.20
2018-12-16T10:12:29.118Z,5.20
2018-12-16T10:15:00.103Z,5.20
2018-12-16T10:17:31.104Z,5.30
2018-12-16T10:20:02.060Z,5.40
2018-12-16T10:22:33.099Z,5.40
2018-12-16T10:25:04.325Z,5.50
2018-12-16T10:27:35.257Z,5.50
2018-12-16T10:30:08.246Z,5.60
2018-12-16T10:32:40.348Z,5.60
2018-12-16T10:35:12.940Z,5.60
2018-12-16T10:37:46.007Z,5.60
2018-12-16T10:40:17.789Z,5.60
2018-12-16T10:42:49.466Z,5.70
2018-12-16T10:45:21.774Z,5.70
2018-12-16T10:47:54.139Z,5.80
2018-12-16T10:50:26.277Z,5.80
2018-12-16T10:52:57.253Z,5.90
2018-12-16T10:55:28.216Z,5.90
2018-12-16T10:57:59.279Z,6.00
2018-12-16T11:00:35.533Z,6.00
2018-12-16T11:03:06.485Z,6.00
2018-12-16T11:05:37.864Z,6.10
2018-12-16T11:08:08.826Z,6.20
2018-12-16T11:10:39.934Z,6.20
2018-12-16T11:13:11.194Z,6.30
2018-12-16T11:15:42.287Z,6.40
2018-12-16T11:18:14.584Z,6.40
2018-12-16T11:20:46.531Z,6.40
2018-12-16T11:23:17.669Z,6.50
2018-12-16T11:25:52.347Z,6.50
2018-12-16T11:28:24.349Z,6.50
2018-12-16T11:30:56.673Z,6.50
2018-12-16T11:33:28.548Z,6.50
2018-12-16T11:36:00.873Z,6.50
2018-12-16T11:38:31.958Z,6.40
2018-12-16T11:41:03.086Z,6.40
2018-12-16T11:43:34.184Z,6.40
2018-12-16T11:46:05.811Z,6.40
2018-12-16T11:48:36.879Z,6.40
2018-12-16T11:51:07.879Z,6.50
2018-12-16T11:53:39.040Z,6.50
2018-12-16T11:56:10.003Z,6.50
2018-12-16T11:58:41.437Z,6.50
2018-12-16T12:01:12.657Z,6.60
2018-12-16T12:03:43.673Z,6.60
2018-12-16T12:06:14.753Z,6.60
2018-12-16T12:08:45.687Z,6.60
2018-12-16T12:11:16.655Z,6.60
2018-12-16T12:13:47.769Z,6.60
2018-12-16T12:16:19.012Z,6.60
2018-12-16T12:19:01.160Z,6.60
2018-12-16T12:21:32.167Z,6.60
2018-12-16T12:24:03.423Z,6.70
2018-12-16T12:26:41.235Z,6.70
2018-12-16T12:29:12.325Z,6.70
2018-12-16T12:31:43.607Z,6.80
2018-12-16T12:34:14.542Z,6.90
2018-12-16T12:36:45.991Z,6.90
2018-12-16T12:39:17.054Z,6.90
2018-12-16T12:41:48.134Z,6.90
2018-12-16T12:44:19.142Z,6.80
2018-12-16T12:46:50.064Z,6.90
2018-12-16T12:49:21.032Z,6.90
2018-12-16T12:51:52.120Z,6.90
2018-12-16T12:54:23.089Z,7.00
2018-12-16T12:56:54.040Z,7.00
2018-12-16T12:59:25.164Z,6.90
2018-12-16T13:01:56.127Z,6.90
2018-12-16T13:04:27.106Z,6.90
2018-12-16T13:06:58.343Z,7.00
2018-12-16T13:09:29.301Z,7.00
2018-12-16T13:12:00.328Z,7.00
2018-12-16T13:14:31.641Z,7.00
2018-12-16T13:17:02.602Z,7.00
2018-12-16T13:19:34.357Z,6.90
2018-12-16T13:22:05.291Z,7.00
2018-12-16T13:24:43.151Z,7.00
2018-12-16T13:27:14.147Z,7.00
2018-12-16T13:29:45.233Z,7.00
2018-12-16T13:32:16.250Z,7.00
2018-12-16T13:34:47.496Z,7.00
2018-12-16T13:37:18.391Z,7.00
2018-12-16T13:39:49.340Z,7.00
2018-12-16T13:42:20.383Z,7.00
2018-12-16T13:44:51.431Z,6.90
2018-12-16T13:47:22.866Z,7.00
2018-12-16T13:49:54.016Z,7.00
2018-12-16T13:52:25.255Z,7.00
2018-12-16T13:54:56.343Z,7.00
2018-12-16T13:57:28.595Z,7.00
2018-12-16T14:00:00.299Z,7.00
2018-12-16T14:02:31.186Z,7.00
2018-12-16T14:05:02.463Z,7.00
2018-12-16T14:07:33.521Z,7.00
2018-12-16T14:10:05.127Z,7.00
2018-12-16T14:12:36.204Z,7.00
2018-12-16T14:15:07.363Z,6.90
2018-12-16T14:17:38.266Z,6.90
2018-12-16T14:20:10.477Z,6.90
2018-12-16T14:22:41.562Z,6.90
2018-12-16T14:25:12.499Z,6.90
2018-12-16T14:27:43.504Z,6.90
2018-12-16T14:30:14.782Z,6.90
2018-12-16T14:32:45.923Z,6.90
2018-12-16T14:35:17.170Z,7.00
2018-12-16T14:37:48.622Z,6.90
2018-12-16T14:40:20.161Z,6.80
2018-12-16T14:42:52.142Z,6.80
2018-12-16T14:45:23.131Z,6.80
2018-12-16T14:47:54.157Z,6.70
2018-12-16T14:50:25.205Z,6.70
2018-12-16T14:52:56.270Z,6.70
2018-12-16T14:55:27.521Z,6.60
2018-12-16T14:57:59.231Z,6.60
2018-12-16T15:00:30.394Z,6.50
2018-12-16T15:03:01.553Z,6.50
2018-12-16T15:05:32.694Z,6.40
2018-12-16T15:08:04.020Z,6.40
2018-12-16T15:10:35.041Z,6.40
2018-12-16T15:13:06.157Z,6.30
2018-12-16T15:15:37.684Z,6.30
2018-12-16T15:18:08.598Z,6.20
2018-12-16T15:20:39.933Z,6.20
2018-12-16T15:23:10.852Z,6.10
2018-12-16T15:25:41.794Z,6.10
2018-12-16T15:28:12.752Z,6.10
2018-12-16T15:30:43.798Z,6.10
2018-12-16T15:33:14.808Z,6.10
2018-12-16T15:35:45.891Z,6.00
2018-12-16T15:38:17.041Z,6.00
2018-12-16T15:40:48.172Z,6.00
2018-12-16T15:43:19.453Z,5.90
2018-12-16T15:45:50.659Z,5.90
2018-12-16T15:48:21.613Z,5.90
2018-12-16T15:50:52.939Z,5.90
2018-12-16T15:53:23.867Z,5.90
2018-12-16T15:55:54.771Z,5.90
2018-12-16T15:58:25.791Z,5.90
2018-12-16T16:00:57.337Z,5.90
2018-12-16T16:03:28.809Z,5.90
2018-12-16T16:06:00.288Z,5.80
2018-12-16T16:08:31.657Z,5.90
2018-12-16T16:11:02.942Z,5.90
2018-12-16T16:13:33.911Z,5.80
2018-12-16T16:16:05.853Z,5.80
2018-12-16T16:18:36.829Z,5.80
2018-12-16T16:21:07.873Z,5.70
2018-12-16T16:23:38.874Z,5.70
2018-12-16T16:26:16.056Z,5.70
2018-12-16T16:28:43.094Z,5.70
2018-12-16T16:31:14.084Z,5.70
2018-12-16T16:33:45.460Z,5.70
2018-12-16T16:36:16.610Z,5.70
2018-12-16T16:38:47.613Z,5.70
2018-12-16T16:41:18.567Z,5.70
2018-12-16T16:43:50.025Z,5.70
2018-12-16T16:46:21.736Z,5.70
2018-12-16T16:48:53.054Z,5.60
2018-12-16T16:51:24.229Z,5.60
2018-12-16T16:53:55.190Z,5.60
2018-12-16T16:56:26.304Z,5.60
2018-12-16T16:58:57.520Z,5.50
2018-12-16T17:01:28.586Z,5.50
2018-12-16T17:03:59.906Z,5.50
2018-12-16T17:06:30.996Z,5.50
2018-12-16T17:09:03.313Z,5.40
2018-12-16T17:11:35.610Z,5.40
2018-12-16T17:14:08.162Z,8.70
2018-12-16T17:16:40.341Z,11.90
2018-12-16T17:19:11.485Z,13.00
2018-12-16T17:21:43.611Z,14.30
2018-12-16T17:24:15.958Z,14.50
2018-12-16T17:26:48.232Z,15.20
2018-12-16T17:29:19.373Z,15.50
2018-12-16T17:31:50.366Z,16.10
2018-12-16T17:34:21.827Z,15.70
2018-12-16T17:36:52.835Z,15.90
2018-12-16T17:39:23.804Z,16.20
2018-12-16T17:41:54.784Z,16.10
2018-12-16T17:44:25.784Z,16.50
2018-12-16T17:46:56.894Z,16.00
2018-12-16T17:49:28.332Z,15.30
2018-12-16T17:51:59.260Z,15.80
2018-12-16T17:54:30.509Z,16.10
2018-12-16T17:57:01.535Z,15.40
2018-12-16T17:59:32.536Z,15.90
2018-12-16T18:02:03.757Z,16.40
2018-12-16T18:04:34.777Z,16.50
2018-12-16T18:07:06.153Z,16.20
2018-12-16T18:09:37.085Z,16.70
2018-12-16T18:12:08.267Z,16.10
2018-12-16T18:14:39.535Z,16.00
2018-12-16T18:17:10.972Z,16.20
2018-12-16T18:19:41.931Z,16.70
2018-12-16T18:22:14.137Z,17.00
2018-12-16T18:24:45.380Z,17.30
2018-12-16T18:27:16.731Z,16.90
2018-12-16T18:29:47.724Z,16.70
2018-12-16T18:32:18.815Z,16.30
2018-12-16T18:34:50.016Z,16.80
2018-12-16T18:37:21.090Z,16.70
2018-12-16T18:39:52.034Z,16.70
2018-12-16T18:42:23.376Z,16.90
2018-12-16T18:44:54.324Z,15.60
2018-12-16T18:47:28.428Z,14.70
2018-12-16T18:50:02.746Z,15.50
2018-12-16T18:52:33.950Z,15.80
2018-12-16T18:55:05.385Z,15.20
2018-12-16T18:57:36.325Z,15.10
2018-12-16T19:00:10.384Z,14.40
2018-12-16T19:02:41.563Z,12.60
2018-12-16T19:05:12.725Z,10.90
2018-12-16T19:07:43.655Z,9.60
2018-12-16T19:10:15.364Z,8.70
2018-12-16T19:12:46.437Z,8.00
2018-12-16T19:15:18.407Z,7.60
2018-12-16T19:17:49.454Z,7.20
2018-12-16T19:20:21.608Z,6.90
2018-12-16T19:22:53.225Z,6.70
2018-12-16T19:25:24.798Z,6.50
2018-12-16T19:27:55.866Z,6.30
2018-12-16T19:30:27.145Z,6.20
2018-12-16T19:32:58.398Z,6.20
2018-12-16T19:35:29.388Z,6.20
2018-12-16T19:38:03.114Z,6.20
2018-12-16T19:40:33.919Z,6.10
2018-12-16T19:43:04.938Z,6.10
2018-12-16T19:45:36.279Z,6.00
2018-12-16T19:48:07.532Z,6.00
2018-12-16T19:50:38.627Z,6.00
2018-12-16T19:53:12.992Z,6.00
2018-12-16T19:55:44.215Z,6.00
2018-12-16T19:58:15.448Z,5.90
2018-12-16T20:00:46.977Z,5.90
2018-12-16T20:03:17.947Z,5.90
2018-12-16T20:05:54.717Z,5.90
2018-12-16T20:08:26.488Z,5.90
2018-12-16T20:10:57.485Z,5.80
2018-12-16T20:13:29.220Z,5.90
2018-12-16T20:16:01.622Z,5.90
2018-12-16T20:18:32.898Z,5.90
2018-12-16T20:21:03.879Z,5.80
2018-12-16T20:23:34.823Z,5.80
2018-12-16T20:26:05.958Z,5.80
2018-12-16T20:28:37.018Z,5.80
2018-12-16T20:31:08.084Z,5.80
2018-12-16T20:33:39.265Z,5.80
2018-12-16T20:36:10.526Z,5.80
2018-12-16T20:38:41.743Z,5.80
2018-12-16T20:41:12.817Z,5.80
2018-12-16T20:43:44.124Z,5.80
2018-12-16T20:46:15.234Z,5.80
2018-12-16T20:48:46.536Z,5.80
2018-12-16T20:51:17.893Z,5.80
2018-12-16T20:53:49.004Z,5.80
2018-12-16T20:56:20.349Z,5.80
2018-12-16T20:58:52.395Z,5.90
2018-12-16T21:01:23.797Z,5.90
2018-12-16T21:03:57.993Z,6.00
2018-12-16T21:06:30.702Z,6.00
2018-12-16T21:09:01.990Z,6.00
2018-12-16T21:11:38.788Z,6.00
2018-12-16T21:14:15.275Z,6.00
2018-12-16T21:16:52.035Z,6.00
2018-12-16T21:19:23.730Z,6.10
2018-12-16T21:21:56.436Z,6.10
2018-12-16T21:24:28.232Z,6.10
2018-12-16T21:26:59.541Z,6.10
2018-12-16T21:29:30.547Z,6.10
2018-12-16T21:32:01.592Z,6.20
2018-12-16T21:34:33.066Z,6.20
2018-12-16T21:37:04.851Z,6.20
2018-12-16T21:39:35.763Z,6.20
2018-12-16T21:42:06.947Z,6.10
2018-12-16T21:44:38.599Z,6.20
2018-12-16T21:47:10.595Z,6.20
2018-12-16T21:49:43.027Z,6.30
2018-12-16T21:52:14.513Z,6.30
2018-12-16T21:54:45.919Z,6.30
2018-12-16T21:57:17.034Z,6.30
2018-12-16T21:59:48.835Z,6.30
2018-12-16T22:02:20.518Z,6.30
2018-12-16T22:04:51.921Z,6.30
2018-12-16T22:07:22.920Z,6.30
2018-12-16T22:09:53.910Z,6.20
2018-12-16T22:12:25.018Z,6.30
2018-12-16T22:14:56.210Z,6.30
2018-12-16T22:17:27.284Z,6.30
2018-12-16T22:19:58.320Z,6.30
2018-12-16T22:22:29.292Z,6.40
2018-12-16T22:25:00.300Z,6.40
2018-12-16T22:27:31.298Z,6.30
2018-12-16T22:30:02.703Z,6.40
2018-12-16T22:32:33.655Z,6.40
2018-12-16T22:35:04.918Z,6.40
2018-12-16T22:37:36.112Z,6.40
2018-12-16T22:40:07.826Z,6.50
2018-12-16T22:42:38.841Z,6.50
2018-12-16T22:45:09.970Z,6.50
2018-12-16T22:47:41.038Z,6.50
2018-12-16T22:50:11.998Z,6.50
2018-12-16T22:52:43.345Z,6.50
2018-12-16T22:55:15.135Z,6.50
2018-12-16T22:57:47.166Z,6.60
2018-12-16T23:00:18.519Z,6.60
2018-12-16T23:02:49.636Z,6.70
2018-12-16T23:05:21.411Z,6.60
2018-12-16T23:07:53.103Z,6.60
2018-12-16T23:10:24.396Z,6.70
2018-12-16T23:12:55.424Z,6.60
2018-12-16T23:15:26.594Z,6.70
2018-12-16T23:17:57.566Z,6.70
2018-12-16T23:20:29.463Z,6.80
2018-12-16T23:23:00.569Z,6.80
2018-12-16T23:25:31.767Z,6.80
2018-12-16T23:28:02.770Z,6.90
2018-12-16T23:30:33.730Z,6.90
2018-12-16T23:33:04.808Z,6.90
2018-12-16T23:35:35.904Z,7.00
2018-12-16T23:38:07.963Z,7.00
2018-12-16T23:40:39.336Z,7.00
2018-12-16T23:43:10.229Z,7.00
2018-12-16T23:45:41.217Z,7.00
2018-12-16T23:48:12.396Z,7.00
2018-12-16T23:50:43.347Z,7.00
2018-12-16T23:53:14.274Z,7.00
2018-12-16T23:55:45.339Z,7.00
2018-12-16T23:58:16.327Z,7.00
